createdAt,value
2022-08-05T00:01:35.887Z,13.78
2022-08-05T00:04:05.061Z,13.74
2022-08-05T00:06:35.850Z,13.70
2022-08-05T00:09:03.896Z,13.66
2022-08-05T00:11:35.053Z,13.62
2022-08-05T00:14:16.896Z,13.60
2022-08-05T00:16:52.337Z,13.60
2022-08-05T00:19:22.244Z,13.58
2022-08-05T00:21:49.664Z,13.55
2022-08-05T00:24:24.236Z,13.52
2022-08-05T00:26:53.244Z,13.49
2022-08-05T00:29:22.659Z,13.47
2022-08-05T00:32:09.391Z,13.44
2022-08-05T00:34:55.425Z,13.40
2022-08-05T00:37:27.398Z,13.36
2022-08-05T00:40:13.833Z,13.31
2022-08-05T00:42:49.143Z,13.27
2022-08-05T00:45:16.634Z,13.25
2022-08-05T00:47:57.835Z,13.24
2022-08-05T00:50:32.959Z,13.22
2022-08-05T00:52:59.877Z,13.19
2022-08-05T00:55:42.142Z,13.14
2022-08-05T00:58:11.265Z,13.09
2022-08-05T01:00:39.662Z,13.04
2022-08-05T01:03:07.792Z,12.99
2022-08-05T01:05:35.329Z,12.96
2022-08-05T01:08:39.141Z,12.98
2022-08-05T01:11:36.839Z,12.97
2022-08-05T01:14:15.436Z,13.01
2022-08-05T01:17:00.088Z,13.03
2022-08-05T01:20:02.451Z,13.02
2022-08-05T01:22:49.733Z,12.99
2022-08-05T01:25:50.281Z,12.97
2022-08-05T01:28:39.462Z,12.96
2022-08-05T01:31:16.895Z,12.95
2022-08-05T01:33:55.406Z,12.93
2022-08-05T01:36:28.284Z,12.91
2022-08-05T01:38:56.690Z,12.89
2022-08-05T01:41:29.462Z,12.87
2022-08-05T01:43:57.122Z,12.85
2022-08-05T01:46:41.555Z,12.83
2022-08-05T01:49:24.299Z,12.81
2022-08-05T01:52:01.426Z,12.80
2022-08-05T01:54:48.845Z,12.77
2022-08-05T01:58:29.498Z,12.73
2022-08-05T02:00:13.457Z,12.67
2022-08-05T02:02:54.712Z,12.63
2022-08-05T02:05:28.569Z,12.58
2022-08-05T02:08:01.066Z,12.55
2022-08-05T02:10:34.642Z,12.51
2022-08-05T02:13:16.084Z,12.47
2022-08-05T02:15:54.247Z,12.41
2022-08-05T02:18:28.062Z,12.39
2022-08-05T02:21:14.946Z,12.37
2022-08-05T02:23:45.102Z,12.36
2022-08-05T02:26:17.194Z,12.36
2022-08-05T02:28:45.771Z,12.37
2022-08-05T02:31:23.154Z,12.37
2022-08-05T02:33:58.154Z,12.36
2022-08-05T02:36:27.478Z,12.34
2022-08-05T02:39:00.433Z,12.33
2022-08-05T02:41:42.928Z,12.30
2022-08-05T02:44:16.950Z,12.29
2022-08-05T02:46:58.420Z,12.27
2022-08-05T02:49:36.448Z,12.26
2022-08-05T02:52:08.772Z,12.25
2022-08-05T02:54:41.315Z,12.25
2022-08-05T02:58:09.882Z,12.24
2022-08-05T03:00:02.496Z,12.23
2022-08-05T03:02:34.940Z,12.21
2022-08-05T03:05:02.978Z,12.22
2022-08-05T03:07:59.147Z,12.24
2022-08-05T03:10:24.628Z,12.26
2022-08-05T03:12:52.778Z,12.27
2022-08-05T03:15:20.796Z,12.28
2022-08-05T03:17:49.707Z,12.28
2022-08-05T03:20:21.100Z,12.30
2022-08-05T03:22:50.084Z,12.30
2022-08-05T03:25:33.053Z,12.30
2022-08-05T03:28:03.328Z,12.29
2022-08-05T03:30:34.173Z,12.30
2022-08-05T03:33:06.021Z,12.31
2022-08-05T03:35:40.454Z,12.32
2022-08-05T03:38:10.749Z,12.32
2022-08-05T03:40:41.062Z,12.32
2022-08-05T03:43:32.348Z,12.34
2022-08-05T03:45:59.582Z,12.39
2022-08-05T03:48:29.045Z,12.42
2022-08-05T03:52:49.231Z,12.47
2022-08-05T03:56:05.915Z,12.61
2022-08-05T03:57:53.591Z,12.95
2022-08-05T04:00:21.321Z,13.27
2022-08-05T04:02:58.486Z,13.65
2022-08-05T04:05:33.292Z,14.05
2022-08-05T04:08:14.797Z,14.45
2022-08-05T04:10:54.516Z,14.90
2022-08-05T04:13:21.881Z,15.24
2022-08-05T04:16:03.150Z,15.57
2022-08-05T04:18:34.278Z,16.02
2022-08-05T04:21:01.773Z,16.36
2022-08-05T04:24:01.107Z,16.84
2022-08-05T04:26:18.496Z,17.24
2022-08-05T04:28:50.731Z,17.57
2022-08-05T04:31:18.581Z,17.95
2022-08-05T04:34:17.954Z,18.34
2022-08-05T04:36:45.518Z,18.76
2022-08-05T04:39:17.196Z,19.10
2022-08-05T04:41:45.936Z,19.43
2022-08-05T04:44:15.221Z,19.74
2022-08-05T04:46:48.545Z,19.93
2022-08-05T04:49:15.378Z,20.20
2022-08-05T04:51:43.729Z,20.49
2022-08-05T04:54:12.008Z,20.75
2022-08-05T04:56:39.569Z,21.03
2022-08-05T04:59:21.770Z,21.35
2022-08-05T05:02:06.874Z,21.54
2022-08-05T05:04:35.834Z,21.79
2022-08-05T05:07:05.334Z,21.88
2022-08-05T05:09:37.227Z,22.00
2022-08-05T05:12:04.825Z,22.32
2022-08-05T05:14:33.134Z,22.49
2022-08-05T05:17:03.786Z,22.78
2022-08-05T05:19:36.960Z,22.79
2022-08-05T05:22:24.472Z,22.91
2022-08-05T05:25:00.248Z,22.71
2022-08-05T05:27:44.458Z,22.62
2022-08-05T05:30:29.556Z,22.70
2022-08-05T05:33:08.901Z,22.67
2022-08-05T05:35:44.519Z,22.74
2022-08-05T05:38:13.706Z,22.82
2022-08-05T05:40:50.029Z,22.92
2022-08-05T05:43:22.302Z,23.20
2022-08-05T05:46:13.808Z,23.35
2022-08-05T05:48:43.962Z,23.50
2022-08-05T05:51:15.803Z,23.82
2022-08-05T05:53:45.995Z,24.33
2022-08-05T05:56:26.132Z,24.49
2022-08-05T05:58:58.708Z,24.79
2022-08-05T06:01:37.495Z,25.13
2022-08-05T06:04:14.855Z,25.70
2022-08-05T06:06:47.556Z,26.17
2022-08-05T06:09:26.530Z,26.25
2022-08-05T06:12:03.852Z,25.97
2022-08-05T06:14:31.716Z,26.34
2022-08-05T06:16:59.696Z,26.91
2022-08-05T06:19:34.986Z,27.31
2022-08-05T06:22:07.250Z,27.39
2022-08-05T06:24:36.585Z,27.31
2022-08-05T06:27:04.592Z,27.24
2022-08-05T06:29:52.009Z,27.47
2022-08-05T06:32:29.436Z,27.48
2022-08-05T06:34:57.958Z,27.45
2022-08-05T06:37:56.113Z,27.46
2022-08-05T06:40:14.032Z,27.38
2022-08-05T06:42:45.732Z,27.62
2022-08-05T06:45:20.748Z,27.83
2022-08-05T06:48:37.478Z,28.05
2022-08-05T06:50:35.560Z,28.34
2022-08-05T06:53:11.688Z,28.11
2022-08-05T06:55:49.283Z,27.79
2022-08-05T06:58:20.086Z,28.24
2022-08-05T07:01:01.447Z,28.63
2022-08-05T07:03:32.697Z,28.97
2022-08-05T07:06:01.373Z,29.64
2022-08-05T07:08:33.119Z,30.29
2022-08-05T07:10:59.900Z,30.45
2022-08-05T07:13:58.456Z,30.78
2022-08-05T07:17:59.043Z,31.02
2022-08-05T07:19:02.084Z,30.46
2022-08-05T07:21:28.823Z,29.86
2022-08-05T07:24:17.004Z,29.62
2022-08-05T07:26:46.330Z,30.00
2022-08-05T07:29:13.663Z,30.08
2022-08-05T07:31:54.648Z,29.68
2022-08-05T07:34:28.364Z,29.17
2022-08-05T07:36:55.349Z,29.23
2022-08-05T07:39:24.814Z,29.84
2022-08-05T07:42:15.260Z,30.33
2022-08-05T07:44:43.181Z,30.51
2022-08-05T07:47:13.448Z,30.73
2022-08-05T07:49:43.596Z,30.67
2022-08-05T07:52:23.919Z,30.77
2022-08-05T07:54:53.152Z,31.06
2022-08-05T07:57:55.304Z,31.23
2022-08-05T08:00:11.415Z,32.16
2022-08-05T08:03:14.246Z,32.74
2022-08-05T08:05:26.397Z,32.80
2022-08-05T08:07:59.939Z,32.75
2022-08-05T08:10:28.042Z,32.52
2022-08-05T08:12:55.129Z,32.69
2022-08-05T08:16:33.469Z,32.83
2022-08-05T08:18:14.121Z,33.21
2022-08-05T08:20:59.689Z,33.69
2022-08-05T08:24:03.801Z,34.24
2022-08-05T08:26:14.556Z,34.75
2022-08-05T08:28:59.471Z,34.94
2022-08-05T08:31:27.937Z,34.64
2022-08-05T08:33:59.834Z,34.58
2022-08-05T08:36:38.144Z,34.34
2022-08-05T08:39:15.835Z,33.78
2022-08-05T08:41:52.327Z,33.59
2022-08-05T08:45:21.058Z,33.64
2022-08-05T08:47:46.939Z,33.84
2022-08-05T08:50:31.952Z,34.03
2022-08-05T08:53:11.901Z,34.22
2022-08-05T08:56:04.477Z,34.19
2022-08-05T08:58:37.445Z,33.83
2022-08-05T09:01:16.968Z,33.31
2022-08-05T09:03:54.352Z,32.83
2022-08-05T09:06:28.250Z,32.49
2022-08-05T09:08:59.341Z,32.63
2022-08-05T09:11:53.341Z,32.94
2022-08-05T09:14:58.017Z,33.22
2022-08-05T09:17:05.583Z,33.39
2022-08-05T09:20:01.333Z,33.12
2022-08-05T09:22:31.759Z,33.33
2022-08-05T09:25:23.915Z,33.33
2022-08-05T09:28:03.830Z,33.39
2022-08-05T09:30:34.690Z,33.31
2022-08-05T09:33:02.532Z,32.96
2022-08-05T09:35:31.543Z,33.01
2022-08-05T09:38:16.304Z,33.02
2022-08-05T09:40:52.612Z,32.90
2022-08-05T09:43:40.449Z,32.65
2022-08-05T09:46:27.564Z,32.48
2022-08-05T09:49:08.005Z,32.46
2022-08-05T09:51:49.749Z,32.54
2022-08-05T09:54:29.633Z,32.93
2022-08-05T09:56:57.587Z,33.14
2022-08-05T09:59:27.718Z,33.11
2022-08-05T10:01:58.289Z,33.09
2022-08-05T10:04:35.840Z,33.02
2022-08-05T10:07:20.332Z,32.92
2022-08-05T10:10:04.227Z,32.78
2022-08-05T10:12:49.464Z,32.86
2022-08-05T10:15:34.298Z,33.26
2022-08-05T10:18:17.625Z,33.67
2022-08-05T10:20:56.377Z,33.62
2022-08-05T10:24:00.056Z,33.58
2022-08-05T10:26:32.574Z,33.64
2022-08-05T10:29:00.831Z,33.62
2022-08-05T10:33:01.486Z,33.54
2022-08-05T10:34:14.533Z,33.26
2022-08-05T10:36:44.207Z,33.15
2022-08-05T10:40:03.176Z,32.99
2022-08-05T10:42:34.139Z,32.96
2022-08-05T10:45:01.820Z,33.26
2022-08-05T10:47:33.704Z,33.48
2022-08-05T10:50:31.810Z,33.72
2022-08-05T10:52:52.577Z,33.87
2022-08-05T10:55:26.767Z,33.88
2022-08-05T10:58:11.651Z,34.04
2022-08-05T11:00:46.477Z,33.68
2022-08-05T11:03:24.476Z,33.71
2022-08-05T11:06:04.031Z,33.85
2022-08-05T11:08:37.934Z,33.95
2022-08-05T11:11:41.996Z,34.07
2022-08-05T11:15:01.306Z,33.61
2022-08-05T11:18:09.580Z,33.56
2022-08-05T11:20:41.571Z,33.35
2022-08-05T11:24:03.995Z,33.19
2022-08-05T11:26:32.493Z,33.11
2022-08-05T11:29:12.729Z,33.32
2022-08-05T11:31:53.965Z,33.40
2022-08-05T11:34:51.446Z,33.34
2022-08-05T11:38:36.741Z,33.13
2022-08-05T11:41:35.310Z,33.45
2022-08-05T11:44:09.989Z,33.63
2022-08-05T11:47:10.314Z,33.92
2022-08-05T11:49:34.319Z,33.84
2022-08-05T11:52:11.519Z,33.62
2022-08-05T11:54:40.720Z,33.64
2022-08-05T11:57:24.828Z,33.72
2022-08-05T11:59:55.741Z,33.62
2022-08-05T12:02:32.530Z,33.38
2022-08-05T12:05:07.540Z,33.12
2022-08-05T12:08:03.110Z,33.22
2022-08-05T12:10:43.072Z,33.39
2022-08-05T12:13:47.445Z,33.41
2022-08-05T12:16:15.013Z,33.32
2022-08-05T12:18:49.049Z,33.41
2022-08-05T12:21:23.777Z,33.27
2022-08-05T12:24:10.475Z,33.27
2022-08-05T12:26:40.936Z,33.19
2022-08-05T12:29:22.538Z,32.91
2022-08-05T12:31:57.760Z,33.00
2022-08-05T12:34:31.032Z,32.94
2022-08-05T12:37:03.580Z,33.03
2022-08-05T12:39:34.474Z,33.04
2022-08-05T12:42:14.628Z,33.09
2022-08-05T12:44:43.224Z,33.11
2022-08-05T12:47:12.672Z,33.15
2022-08-05T12:50:04.369Z,33.25
2022-08-05T12:52:32.380Z,33.31
2022-08-05T12:55:16.637Z,33.52
2022-08-05T12:58:50.214Z,33.73
2022-08-05T13:02:05.851Z,33.65
2022-08-05T13:03:16.762Z,33.59
2022-08-05T13:05:47.214Z,33.57
2022-08-05T13:08:19.648Z,33.54
2022-08-05T13:10:50.518Z,33.59
2022-08-05T13:14:05.438Z,33.66
2022-08-05T13:16:15.396Z,33.60
2022-08-05T13:18:57.648Z,33.64
2022-08-05T13:21:28.238Z,33.75
2022-08-05T13:24:06.095Z,33.83
2022-08-05T13:26:35.738Z,33.94
2022-08-05T13:29:02.468Z,34.06
2022-08-05T13:32:02.863Z,34.31
2022-08-05T13:34:21.508Z,34.94
2022-08-05T13:36:50.555Z,35.73
2022-08-05T13:39:24.820Z,36.64
2022-08-05T13:42:04.013Z,37.26
2022-08-05T13:44:32.801Z,37.71
2022-08-05T13:47:08.856Z,37.98
2022-08-05T13:49:38.179Z,38.16
2022-08-05T13:52:16.589Z,38.31
2022-08-05T13:54:43.756Z,38.67
2022-08-05T13:57:21.069Z,39.31
2022-08-05T13:59:57.534Z,39.62
2022-08-05T14:02:29.777Z,39.61
2022-08-05T14:05:00.831Z,39.51
2022-08-05T14:08:00.139Z,39.72
2022-08-05T14:10:32.431Z,39.99
2022-08-05T14:12:59.958Z,40.44
2022-08-05T14:16:05.878Z,40.81
2022-08-05T14:18:18.670Z,41.18
2022-08-05T14:20:54.982Z,41.16
2022-08-05T14:23:25.913Z,41.01
2022-08-05T14:25:58.719Z,40.92
2022-08-05T14:28:28.439Z,41.10
2022-08-05T14:30:59.354Z,41.12
2022-08-05T14:33:27.020Z,40.98
2022-08-05T14:36:00.581Z,41.13
2022-08-05T14:38:34.416Z,41.21
2022-08-05T14:41:06.065Z,40.90
2022-08-05T14:44:01.958Z,40.82
2022-08-05T14:46:28.547Z,40.90
2022-08-05T14:49:06.596Z,41.13
2022-08-05T14:51:36.525Z,41.24
2022-08-05T14:54:26.843Z,41.10
2022-08-05T14:56:53.727Z,41.38
2022-08-05T14:59:21.656Z,41.34
2022-08-05T15:01:49.943Z,40.52
2022-08-05T15:04:22.354Z,39.34
2022-08-05T15:06:50.976Z,38.10
2022-08-05T15:09:52.169Z,37.23
2022-08-05T15:12:09.348Z,36.45
2022-08-05T15:14:48.058Z,35.98
2022-08-05T15:17:46.019Z,35.40
2022-08-05T15:20:17.156Z,35.01
2022-08-05T15:22:54.258Z,34.79
2022-08-05T15:25:41.394Z,34.42
2022-08-05T15:28:14.341Z,34.09
2022-08-05T15:30:43.676Z,33.87
2022-08-05T15:33:13.248Z,33.77
2022-08-05T15:35:59.963Z,33.59
2022-08-05T15:38:34.095Z,33.43
2022-08-05T15:41:21.388Z,33.37
2022-08-05T15:43:50.345Z,33.25
2022-08-05T15:46:20.167Z,33.14
2022-08-05T15:48:52.718Z,33.15
2022-08-05T15:52:13.901Z,33.61
2022-08-05T15:54:15.122Z,35.07
2022-08-05T15:56:42.527Z,36.47
2022-08-05T15:59:10.627Z,37.51
2022-08-05T16:01:52.914Z,38.52
2022-08-05T16:04:25.783Z,38.91
2022-08-05T16:06:56.487Z,38.31
2022-08-05T16:09:24.942Z,37.77
2022-08-05T16:11:54.037Z,37.40
2022-08-05T16:14:22.418Z,37.50
2022-08-05T16:16:49.446Z,38.22
2022-08-05T16:19:25.606Z,38.91
2022-08-05T16:22:04.634Z,39.51
2022-08-05T16:24:41.098Z,40.02
2022-08-05T16:27:17.926Z,40.56
2022-08-05T16:29:50.401Z,40.68
2022-08-05T16:32:28.740Z,40.61
2022-08-05T16:34:56.781Z,40.54
2022-08-05T16:38:02.871Z,40.59
2022-08-05T16:40:13.484Z,40.46
2022-08-05T16:42:53.158Z,40.31
2022-08-05T16:46:07.828Z,39.27
2022-08-05T16:48:06.634Z,37.62
2022-08-05T16:50:37.277Z,36.39
2022-08-05T16:53:12.656Z,35.36
2022-08-05T16:55:49.970Z,34.48
2022-08-05T16:58:19.713Z,33.82
2022-08-05T17:00:48.128Z,33.19
2022-08-05T17:03:20.078Z,32.75
2022-08-05T17:05:53.926Z,32.47
2022-08-05T17:08:36.042Z,32.12
2022-08-05T17:11:17.365Z,31.73
2022-08-05T17:13:45.356Z,31.47
2022-08-05T17:16:32.526Z,31.19
2022-08-05T17:19:00.340Z,30.99
2022-08-05T17:21:35.556Z,31.35
2022-08-05T17:24:18.471Z,31.80
2022-08-05T17:26:53.363Z,31.37
2022-08-05T17:29:22.739Z,30.94
2022-08-05T17:32:01.130Z,30.52
2022-08-05T17:34:29.540Z,30.21
2022-08-05T17:36:59.889Z,29.95
2022-08-05T17:39:34.309Z,29.70
2022-08-05T17:42:19.055Z,29.43
2022-08-05T17:44:50.556Z,29.13
2022-08-05T17:47:21.738Z,28.81
2022-08-05T17:50:00.052Z,28.48
2022-08-05T17:52:32.504Z,28.13
2022-08-05T17:55:00.374Z,27.79
2022-08-05T17:57:28.052Z,27.49
2022-08-05T18:00:05.432Z,27.25
2022-08-05T18:02:34.101Z,27.01
2022-08-05T18:05:01.871Z,26.73
2022-08-05T18:07:32.890Z,26.48
2022-08-05T18:10:10.746Z,26.25
2022-08-05T18:12:38.089Z,26.04
2022-08-05T18:15:06.104Z,25.86
2022-08-05T18:18:01.035Z,25.73
2022-08-05T18:20:29.180Z,25.63
2022-08-05T18:23:09.525Z,25.54
2022-08-05T18:25:44.761Z,25.41
2022-08-05T18:28:16.117Z,25.27
2022-08-05T18:30:50.909Z,25.13
2022-08-05T18:33:23.146Z,24.99
2022-08-05T18:36:03.773Z,24.83
2022-08-05T18:38:34.932Z,24.66
2022-08-05T18:41:56.461Z,24.49
2022-08-05T18:43:50.261Z,24.30
2022-08-05T18:46:20.081Z,24.14
2022-08-05T18:48:51.884Z,23.98
2022-08-05T18:52:04.235Z,23.85
2022-08-05T18:54:10.210Z,23.70
2022-08-05T18:56:36.833Z,23.60
2022-08-05T18:59:05.074Z,23.49
2022-08-05T19:01:56.990Z,23.41
2022-08-05T19:04:25.996Z,23.35
2022-08-05T19:06:53.650Z,23.24
2022-08-05T19:09:21.103Z,23.15
2022-08-05T19:11:59.194Z,23.06
2022-08-05T19:14:59.368Z,23.01
2022-08-05T19:17:16.589Z,22.93
2022-08-05T19:19:46.803Z,22.83
2022-08-05T19:22:17.106Z,22.72
2022-08-05T19:24:56.358Z,22.63
2022-08-05T19:27:24.650Z,22.53
2022-08-05T19:29:54.749Z,22.40
2022-08-05T19:32:23.526Z,22.30
2022-08-05T19:34:55.115Z,22.21
2022-08-05T19:37:29.804Z,22.13
2022-08-05T19:40:13.167Z,22.03
2022-08-05T19:42:41.872Z,21.95
2022-08-05T19:45:27.732Z,21.89
2022-08-05T19:47:59.905Z,21.81
2022-08-05T19:50:26.803Z,21.75
2022-08-05T19:52:54.426Z,21.70
2022-08-05T19:56:13.768Z,21.66
2022-08-05T19:58:29.132Z,21.61
2022-08-05T20:00:54.633Z,21.55
2022-08-05T20:03:21.455Z,21.50
2022-08-05T20:05:50.624Z,21.44
2022-08-05T20:08:19.184Z,21.35
2022-08-05T20:10:49.538Z,21.26
2022-08-05T20:13:17.550Z,21.19
2022-08-05T20:15:51.538Z,21.12
2022-08-05T20:18:33.977Z,21.05
2022-08-05T20:21:04.535Z,21.00
2022-08-05T20:23:39.903Z,20.94
2022-08-05T20:26:17.802Z,20.89
2022-08-05T20:28:49.261Z,20.84
2022-08-05T20:31:17.085Z,20.78
2022-08-05T20:33:44.905Z,20.71
2022-08-05T20:36:14.242Z,20.65
2022-08-05T20:38:54.487Z,20.58
2022-08-05T20:41:27.420Z,20.53
2022-08-05T20:44:15.456Z,20.47
2022-08-05T20:46:47.292Z,20.43
2022-08-05T20:49:14.299Z,20.38
2022-08-05T20:51:45.050Z,20.31
2022-08-05T20:54:20.228Z,20.24
2022-08-05T20:56:47.543Z,20.18
2022-08-05T20:59:19.136Z,20.11
2022-08-05T21:01:47.141Z,20.05
2022-08-05T21:04:14.224Z,20.01
2022-08-05T21:06:45.088Z,19.99
2022-08-05T21:09:14.568Z,19.97
2022-08-05T21:12:10.287Z,19.94
2022-08-05T21:14:35.219Z,19.95
2022-08-05T21:17:05.327Z,19.93
2022-08-05T21:19:46.466Z,19.89
2022-08-05T21:22:18.492Z,19.88
2022-08-05T21:24:48.712Z,19.84
2022-08-05T21:27:18.225Z,19.83
2022-08-05T21:29:48.475Z,19.82
2022-08-05T21:32:20.103Z,19.77
2022-08-05T21:35:06.748Z,19.70
2022-08-05T21:37:34.900Z,19.60
2022-08-05T21:40:05.714Z,19.51
2022-08-05T21:42:44.196Z,19.45
2022-08-05T21:45:13.048Z,19.38
2022-08-05T21:47:56.076Z,19.38
2022-08-05T21:50:25.517Z,19.34
2022-08-05T21:52:52.915Z,19.29
2022-08-05T21:55:42.859Z,19.24
2022-08-05T21:58:07.073Z,19.17
2022-08-05T22:00:37.248Z,19.11
2022-08-05T22:03:03.934Z,19.07
2022-08-05T22:05:49.205Z,19.03
2022-08-05T22:08:22.300Z,19.00
2022-08-05T22:10:51.607Z,18.95
2022-08-05T22:14:19.560Z,18.93
2022-08-05T22:16:32.361Z,18.89
2022-08-05T22:18:53.763Z,18.84
2022-08-05T22:21:25.245Z,18.80
2022-08-05T22:24:03.006Z,18.75
2022-08-05T22:26:35.465Z,18.71
2022-08-05T22:29:02.479Z,18.64
2022-08-05T22:31:30.467Z,18.60
2022-08-05T22:34:01.119Z,18.55
2022-08-05T22:36:28.924Z,18.51
2022-08-05T22:38:56.190Z,18.46
2022-08-05T22:42:05.605Z,18.42
2022-08-05T22:44:11.999Z,18.39
2022-08-05T22:46:40.686Z,18.38
2022-08-05T22:50:17.165Z,18.38
2022-08-05T22:52:07.056Z,18.35
2022-08-05T22:54:38.875Z,18.30
2022-08-05T22:57:06.438Z,18.26
2022-08-05T22:59:45.489Z,18.22
2022-08-05T23:02:17.887Z,18.19
2022-08-05T23:04:52.156Z,18.15
2022-08-05T23:07:22.477Z,18.09
2022-08-05T23:09:58.310Z,18.05
2022-08-05T23:12:32.388Z,18.04
2022-08-05T23:15:00.186Z,18.03
2022-08-05T23:17:34.698Z,18.02
2022-08-05T23:20:17.762Z,17.98
2022-08-05T23:22:48.582Z,17.94
2022-08-05T23:25:52.346Z,17.90
2022-08-05T23:28:07.213Z,17.85
2022-08-05T23:30:40.683Z,17.82
2022-08-05T23:33:22.101Z,17.78
2022-08-05T23:35:56.201Z,17.75
2022-08-05T23:38:24.061Z,17.74
2022-08-05T23:40:52.567Z,17.70
2022-08-05T23:43:25.228Z,17.68
2022-08-05T23:46:20.262Z,17.64
2022-08-05T23:49:00.015Z,17.61
2022-08-05T23:51:29.558Z,17.56
2022-08-05T23:54:01.026Z,17.48
2022-08-05T23:56:28.162Z,17.44
2022-08-05T23:58:58.664Z,17.39
